Time;durP1;ratioP1;P1;durP2;ratioP2;P2;SDS_P1;SDS_P2;PMS_P1;PMS_P2;Temp;Humidity;BMP_temperature;BMP_pressure;BME280_temperature;BME280_humidity;BME280_pressure;Samples;Min_cycle;Max_cycle;Signal;HPM_P1;HPM_P2
2023/04/03 00:01:20;;;;;;;3.90;1.97;;;;;;;;;;5050878;28;20021;-74
2023/04/03 00:03:46;;;;;;;8.20;2.07;;;;;;;;;;5052173;28;20039;-73
2023/04/03 00:06:12;;;;;;;5.57;2.30;;;;;;;;;;5051483;28;20492;-75
2023/04/03 00:08:39;;;;;;;3.60;2.27;;;;;;;;;;5051707;28;20037;-75
2023/04/03 00:11:05;;;;;;;7.17;2.23;;;;;;;;;;5050484;28;20043;-75
2023/04/03 00:13:31;;;;;;;7.40;2.13;;;;;;;;;;5051486;28;20013;-75
2023/04/03 00:15:56;;;;;;;7.60;2.60;;;;;;;;;;5051704;28;20060;-75
2023/04/03 00:18:22;;;;;;;5.83;2.00;;;;;;;;;;5051266;28;20067;-75
2023/04/03 00:20:48;;;;;;;3.40;2.13;;;;;;;;;;5051292;28;20087;-75
2023/04/03 00:23:13;;;;;;;2.67;1.80;;;;;;;;;;5052392;28;20079;-75
2023/04/03 00:25:39;;;;;;;9.30;2.80;;;;;;;;;;5052462;28;20028;-75
2023/04/03 00:28:05;;;;;;;5.07;2.23;;;;;;;;;;5050641;28;20039;-74
2023/04/03 00:30:31;;;;;;;5.37;2.50;;;;;;;;;;5050665;28;20036;-74
2023/04/03 00:32:57;;;;;;;5.80;2.13;;;;;;;;;;5052126;28;20342;-75
2023/04/03 00:35:24;;;;;;;4.13;1.90;;;;;;;;;;5050297;28;20448;-75
2023/04/03 00:37:54;;;;;;;3.70;2.10;;;;;;;;;;5052058;28;20017;-74
2023/04/03 00:40:21;;;;;;;5.40;2.13;;;;;;;;;;5049413;28;20029;-74
2023/04/03 00:42:49;;;;;;;6.83;2.10;;;;;;;;;;5049452;28;20052;-74
2023/04/03 00:45:43;;;;;;;7.13;2.40;;;;;;;;;;5050036;28;20459;-75
2023/04/03 00:48:13;;;;;;;4.90;2.07;;;;;;;;;;5049646;28;20078;-75
2023/04/03 00:50:41;;;;;;;4.23;2.57;;;;;;;;;;5050450;28;20028;-75
2023/04/03 00:53:09;;;;;;;4.73;1.83;;;;;;;;;;5050240;28;20036;-75
2023/04/03 00:55:36;;;;;;;4.60;1.90;;;;;;;;;;5050469;28;20032;-74
2023/04/03 00:58:03;;;;;;;6.90;2.77;;;;;;;;;;5051351;28;20476;-74
2023/04/03 01:00:29;;;;;;;8.47;2.87;;;;;;;;;;5050271;28;20128;-74
2023/04/03 01:02:54;;;;;;;6.40;2.80;;;;;;;;;;5051033;28;20096;-74
2023/04/03 01:05:21;;;;;;;7.37;3.03;;;;;;;;;;5051175;28;20029;-74
2023/04/03 01:07:48;;;;;;;7.23;2.40;;;;;;;;;;5050349;28;20041;-74
2023/04/03 01:10:16;;;;;;;8.93;2.87;;;;;;;;;;5049380;28;20079;-73
2023/04/03 01:12:45;;;;;;;7.57;2.80;;;;;;;;;;5051432;28;20089;-74
2023/04/03 01:15:23;;;;;;;10.30;2.60;;;;;;;;;;5050747;28;20597;-74
2023/04/03 01:17:53;;;;;;;4.47;2.10;;;;;;;;;;5049956;28;20413;-74
2023/04/03 01:20:50;;;;;;;6.47;2.33;;;;;;;;;;5048644;28;20028;-74
2023/04/03 01:23:30;;;;;;;6.87;2.17;;;;;;;;;;5050923;28;20021;-74
2023/04/03 01:25:56;;;;;;;6.67;2.77;;;;;;;;;;5048894;28;20025;-75
2023/04/03 01:28:28;;;;;;;4.37;2.33;;;;;;;;;;5049275;28;20051;-73
2023/04/03 01:31:09;;;;;;;;;;;;;;;;;;5051308;28;20138;-74
2023/04/03 01:33:35;;;;;;;5.77;1.97;;;;;;;;;;5052132;28;19909;-74
2023/04/03 01:36:02;;;;;;;5.57;2.20;;;;;;;;;;5050553;28;20116;-74
2023/04/03 01:38:27;;;;;;;3.93;1.67;;;;;;;;;;5049318;28;20393;-74
2023/04/03 01:40:53;;;;;;;4.63;2.00;;;;;;;;;;5035005;28;20021;-74
2023/04/03 01:43:18;;;;;;;4.50;1.60;;;;;;;;;;5029136;28;20120;-75
2023/04/03 01:45:46;;;;;;;4.60;1.90;;;;;;;;;;5013794;28;20136;-74
2023/04/03 01:48:13;;;;;;;7.30;2.53;;;;;;;;;;5029241;28;20029;-74
2023/04/03 01:50:38;;;;;;;3.97;1.80;;;;;;;;;;5029155;28;20029;-75
2023/04/03 01:53:04;;;;;;;4.30;1.67;;;;;;;;;;5030136;28;20095;-76
2023/04/03 01:55:30;;;;;;;9.67;2.03;;;;;;;;;;5029875;28;20029;-75
2023/04/03 01:57:55;;;;;;;3.80;1.97;;;;;;;;;;5028491;28;20033;-75
2023/04/03 02:00:21;;;;;;;5.57;2.00;;;;;;;;;;5028501;28;20075;-74
2023/04/03 02:02:46;;;;;;;3.03;1.70;;;;;;;;;;5028464;28;20095;-75
2023/04/03 02:05:12;;;;;;;2.93;1.20;;;;;;;;;;5028824;28;20029;-74
2023/04/03 02:07:37;;;;;;;3.70;1.57;;;;;;;;;;5030085;28;20029;-75
2023/04/03 02:10:03;;;;;;;3.70;1.47;;;;;;;;;;5029953;28;20069;-75
2023/04/03 02:12:28;;;;;;;3.53;1.47;;;;;;;;;;5030248;28;20044;-75
2023/04/03 02:14:54;;;;;;;3.03;1.90;;;;;;;;;;5030513;28;20036;-75
2023/04/03 02:17:19;;;;;;;3.53;1.57;;;;;;;;;;5030310;28;20032;-74
2023/04/03 02:19:45;;;;;;;7.33;2.07;;;;;;;;;;5030679;28;20036;-75
2023/04/03 02:22:10;;;;;;;3.37;1.50;;;;;;;;;;5030307;28;20033;-75
2023/04/03 02:24:36;;;;;;;4.30;1.53;;;;;;;;;;5028984;28;20112;-74
2023/04/03 02:27:01;;;;;;;7.00;2.20;;;;;;;;;;5031078;28;20114;-74
2023/04/03 02:29:27;;;;;;;3.20;1.50;;;;;;;;;;5031634;28;20048;-74
2023/04/03 02:31:52;;;;;;;5.87;1.53;;;;;;;;;;5044826;28;20036;-74
2023/04/03 02:34:18;;;;;;;5.53;1.50;;;;;;;;;;5050481;28;20029;-74
2023/04/03 02:36:44;;;;;;;5.33;1.57;;;;;;;;;;5052222;28;20031;-75
2023/04/03 02:39:09;;;;;;;3.27;1.00;;;;;;;;;;5053857;28;20450;-76
2023/04/03 02:41:35;;;;;;;3.43;1.60;;;;;;;;;;5052484;28;20459;-74
2023/04/03 02:44:05;;;;;;;7.43;1.90;;;;;;;;;;5053722;28;20036;-75
2023/04/03 02:46:31;;;;;;;2.20;1.47;;;;;;;;;;5052745;28;20064;-74
2023/04/03 02:48:57;;;;;;;3.30;1.60;;;;;;;;;;5053788;28;20488;-76
2023/04/03 02:51:23;;;;;;;2.13;1.40;;;;;;;;;;5054373;28;20060;-75
2023/04/03 02:53:49;;;;;;;6.33;2.13;;;;;;;;;;5052033;28;20033;-74
2023/04/03 02:56:15;;;;;;;4.53;1.37;;;;;;;;;;5052660;28;20473;-75
2023/04/03 02:58:40;;;;;;;2.07;1.33;;;;;;;;;;5054565;28;20032;-75
2023/04/03 03:01:06;;;;;;;5.37;1.50;;;;;;;;;;5051723;28;20037;-75
2023/04/03 03:03:32;;;;;;;4.17;1.60;;;;;;;;;;5053365;28;20032;-75
2023/04/03 03:06:11;;;;;;;7.07;1.80;;;;;;;;;;5052306;28;20029;-75
2023/04/03 03:08:37;;;;;;;2.17;1.70;;;;;;;;;;5053836;28;20036;-75
2023/04/03 03:11:04;;;;;;;5.33;1.70;;;;;;;;;;5054023;28;20033;-75
2023/04/03 03:13:30;;;;;;;7.73;1.77;;;;;;;;;;5053029;28;20029;-75
2023/04/03 03:15:55;;;;;;;3.20;1.40;;;;;;;;;;5053336;28;20028;-74
2023/04/03 03:18:21;;;;;;;4.97;1.83;;;;;;;;;;5051255;28;20473;-74
2023/04/03 03:20:50;;;;;;;7.63;1.80;;;;;;;;;;5051794;28;20120;-74
2023/04/03 03:23:15;;;;;;;7.30;1.80;;;;;;;;;;5052951;28;20127;-74
2023/04/03 03:25:41;;;;;;;4.30;1.63;;;;;;;;;;5052991;28;20061;-75
2023/04/03 03:28:07;;;;;;;8.80;1.73;;;;;;;;;;5051224;28;20122;-74
2023/04/03 03:30:33;;;;;;;5.30;1.50;;;;;;;;;;5052490;28;20029;-74
2023/04/03 03:32:58;;;;;;;5.77;1.73;;;;;;;;;;5053695;28;20021;-74
2023/04/03 03:35:24;;;;;;;4.80;1.60;;;;;;;;;;5051375;28;20025;-75
2023/04/03 03:37:49;;;;;;;2.30;1.17;;;;;;;;;;5052775;28;20461;-72
2023/04/03 03:40:15;;;;;;;7.10;1.53;;;;;;;;;;5040602;28;20025;-72
2023/04/03 03:42:41;;;;;;;2.33;1.20;;;;;;;;;;5030657;28;20212;-73
2023/04/03 03:45:07;;;;;;;6.23;2.10;;;;;;;;;;5031201;28;20033;-73
2023/04/03 03:47:33;;;;;;;5.03;1.87;;;;;;;;;;5031179;28;20662;-73
2023/04/03 03:49:58;;;;;;;7.80;1.50;;;;;;;;;;5050344;28;20111;-72
2023/04/03 03:52:24;;;;;;;3.97;1.20;;;;;;;;;;5052277;28;20029;-73
2023/04/03 03:54:49;;;;;;;4.20;1.23;;;;;;;;;;5052390;28;20029;-71
2023/04/03 03:57:15;;;;;;;7.23;1.87;;;;;;;;;;5052400;28;20028;-73
2023/04/03 03:59:41;;;;;;;2.37;1.47;;;;;;;;;;5051974;28;20037;-73
2023/04/03 04:02:07;;;;;;;4.37;1.37;;;;;;;;;;5051722;28;20111;-72
2023/04/03 04:04:33;;;;;;;3.00;1.20;;;;;;;;;;5049901;28;20051;-73
2023/04/03 04:07:00;;;;;;;4.13;1.93;;;;;;;;;;5050257;28;20539;-73
2023/04/03 04:09:26;;;;;;;1.30;1.10;;;;;;;;;;5049833;28;20078;-73
2023/04/03 04:11:52;;;;;;;4.93;2.00;;;;;;;;;;5050132;28;20036;-72
2023/04/03 04:14:17;;;;;;;7.60;2.03;;;;;;;;;;5051703;28;20090;-72
2023/04/03 04:16:43;;;;;;;8.77;1.57;;;;;;;;;;5050022;28;20032;-72
2023/04/03 04:19:08;;;;;;;6.83;1.70;;;;;;;;;;5051521;28;20025;-72
2023/04/03 04:21:34;;;;;;;3.33;1.40;;;;;;;;;;5049452;28;20489;-72
2023/04/03 04:24:00;;;;;;;7.10;1.80;;;;;;;;;;5051331;28;20484;-73
2023/04/03 04:26:25;;;;;;;4.97;1.30;;;;;;;;;;5049359;28;20063;-72
2023/04/03 04:28:51;;;;;;;7.70;1.70;;;;;;;;;;5051236;28;20028;-73
2023/04/03 04:31:16;;;;;;;7.90;1.80;;;;;;;;;;5045927;28;20029;-74
2023/04/03 04:33:42;;;;;;;5.00;2.03;;;;;;;;;;5033344;28;20025;-75
2023/04/03 04:36:07;;;;;;;4.13;2.30;;;;;;;;;;5043933;28;20036;-74
2023/04/03 04:38:33;;;;;;;6.17;1.93;;;;;;;;;;5049503;28;20036;-73
2023/04/03 04:40:58;;;;;;;3.90;1.70;;;;;;;;;;5035882;28;20032;-72
2023/04/03 04:43:24;;;;;;;1.93;1.33;;;;;;;;;;5062484;28;20388;-73
2023/04/03 04:46:01;;;;;;;4.07;1.83;;;;;;;;;;5048779;28;20041;-72
2023/04/03 04:48:26;;;;;;;5.60;2.00;;;;;;;;;;5049762;28;20504;-72
2023/04/03 04:50:51;;;;;;;6.50;2.30;;;;;;;;;;5063556;28;20033;-74
2023/04/03 04:53:17;;;;;;;6.37;1.90;;;;;;;;;;5061959;28;20039;-72
2023/04/03 04:55:43;;;;;;;6.67;1.80;;;;;;;;;;5047872;28;20119;-74
2023/04/03 04:58:08;;;;;;;1.87;1.23;;;;;;;;;;5062507;28;20031;-72
2023/04/03 05:00:33;;;;;;;8.47;1.77;;;;;;;;;;5064152;28;20036;-74
2023/04/03 05:02:59;;;;;;;2.87;1.87;;;;;;;;;;5048609;28;20028;-72
2023/04/03 05:05:24;;;;;;;4.03;2.03;;;;;;;;;;5066482;28;20138;-72
2023/04/03 05:07:50;;;;;;;4.77;1.70;;;;;;;;;;5070290;28;20020;-73
2023/04/03 05:10:16;;;;;;;4.33;2.10;;;;;;;;;;5059009;28;20043;-72
2023/04/03 05:12:41;;;;;;;9.73;2.43;;;;;;;;;;5062230;28;20623;-73
2023/04/03 05:15:07;;;;;;;7.97;2.53;;;;;;;;;;5053241;28;20051;-72
2023/04/03 05:17:33;;;;;;;11.60;2.60;;;;;;;;;;5065057;28;20062;-74
2023/04/03 05:19:58;;;;;;;6.97;1.93;;;;;;;;;;5042900;28;20064;-72
2023/04/03 05:22:24;;;;;;;9.17;3.23;;;;;;;;;;5060886;28;20041;-73
2023/04/03 05:24:49;;;;;;;8.87;2.90;;;;;;;;;;5058123;28;20044;-73
2023/04/03 05:27:16;;;;;;;4.83;2.03;;;;;;;;;;5059003;28;20033;-71
2023/04/03 05:29:43;;;;;;;13.10;2.60;;;;;;;;;;5050249;28;20128;-73
2023/04/03 05:32:10;;;;;;;5.10;2.10;;;;;;;;;;5065951;28;20035;-73
2023/04/03 05:34:35;;;;;;;6.17;2.60;;;;;;;;;;5057412;28;20032;-73
2023/04/03 05:37:03;;;;;;;5.13;2.30;;;;;;;;;;5057710;28;20388;-74
2023/04/03 05:39:28;;;;;;;11.40;2.50;;;;;;;;;;5044338;28;20051;-74
2023/04/03 05:41:54;;;;;;;6.00;2.60;;;;;;;;;;5043336;28;20400;-74
2023/04/03 05:44:19;;;;;;;4.60;2.17;;;;;;;;;;5044285;28;20313;-73
2023/04/03 05:46:45;;;;;;;8.70;2.53;;;;;;;;;;5056081;28;20287;-73
2023/04/03 05:49:10;;;;;;;10.17;3.13;;;;;;;;;;5045251;28;20449;-74
2023/04/03 05:51:38;;;;;;;11.90;2.83;;;;;;;;;;5052765;28;20083;-73
2023/04/03 05:54:13;;;;;;;6.97;2.40;;;;;;;;;;5044828;28;20025;-73
2023/04/03 05:56:39;;;;;;;13.60;2.83;;;;;;;;;;5039030;28;20032;-74
2023/04/03 05:59:04;;;;;;;5.03;2.37;;;;;;;;;;5040467;28;20511;-74
2023/04/03 06:01:30;;;;;;;3.00;2.47;;;;;;;;;;5059601;28;20070;-73
2023/04/03 06:03:58;;;;;;;7.37;2.40;;;;;;;;;;5041725;28;20614;-72
2023/04/03 06:06:24;;;;;;;4.83;2.47;;;;;;;;;;5040511;28;20060;-73
2023/04/03 06:08:50;;;;;;;10.20;2.87;;;;;;;;;;5026285;28;20559;-73
2023/04/03 06:11:15;;;;;;;4.97;2.77;;;;;;;;;;5045372;28;20036;-73
2023/04/03 06:13:40;;;;;;;12.07;3.27;;;;;;;;;;5076206;28;20039;-76
2023/04/03 06:16:06;;;;;;;3.80;2.47;;;;;;;;;;5048809;28;20119;-72
2023/04/03 06:18:32;;;;;;;3.40;2.27;;;;;;;;;;5070918;28;20099;-73
2023/04/03 06:20:57;;;;;;;5.73;2.67;;;;;;;;;;5060389;28;20354;-73
2023/04/03 06:23:23;;;;;;;9.40;3.40;;;;;;;;;;5043276;28;20381;-74
2023/04/03 06:25:49;;;;;;;7.73;3.53;;;;;;;;;;5061931;28;20556;-74
2023/04/03 06:28:15;;;;;;;4.50;2.80;;;;;;;;;;5063915;28;20024;-74
2023/04/03 06:30:41;;;;;;;6.77;2.97;;;;;;;;;;5064333;28;20633;-74
2023/04/03 06:33:08;;;;;;;6.10;2.57;;;;;;;;;;5068039;28;20035;-74
2023/04/03 06:35:34;;;;;;;15.43;3.10;;;;;;;;;;5049729;28;20059;-72
2023/04/03 06:38:00;;;;;;;7.23;3.57;;;;;;;;;;5051116;28;20440;-73
2023/04/03 06:40:26;;;;;;;10.67;3.30;;;;;;;;;;5066375;28;20039;-73
2023/04/03 06:42:52;;;;;;;11.33;2.77;;;;;;;;;;5060648;28;20048;-74
2023/04/03 06:45:19;;;;;;;7.13;3.07;;;;;;;;;;5060027;28;20480;-74
2023/04/03 06:47:45;;;;;;;3.33;2.57;;;;;;;;;;5052254;28;20036;-73
2023/04/03 06:50:13;;;;;;;6.07;2.93;;;;;;;;;;5076417;28;20532;-72
2023/04/03 06:52:41;;;;;;;5.50;3.00;;;;;;;;;;5071402;28;20031;-72
2023/04/03 06:55:09;;;;;;;8.10;2.87;;;;;;;;;;5033819;28;20036;-73
2023/04/03 06:57:35;;;;;;;6.67;3.13;;;;;;;;;;5038920;28;20506;-76
2023/04/03 07:00:03;;;;;;;12.70;4.07;;;;;;;;;;5031510;28;20481;-74
2023/04/03 07:02:29;;;;;;;9.00;2.97;;;;;;;;;;5056158;28;20086;-73
2023/04/03 07:04:55;;;;;;;9.50;3.23;;;;;;;;;;5055221;28;20456;-75
2023/04/03 07:07:21;;;;;;;4.37;2.37;;;;;;;;;;5041758;28;20253;-73
2023/04/03 07:09:47;;;;;;;6.73;3.77;;;;;;;;;;5039522;28;20377;-73
2023/04/03 07:12:13;;;;;;;8.97;3.70;;;;;;;;;;5041925;28;20032;-76
2023/04/03 07:14:39;;;;;;;12.33;2.80;;;;;;;;;;5034703;28;20022;-74
2023/04/03 07:17:05;;;;;;;9.63;2.47;;;;;;;;;;5058115;28;20663;-71
2023/04/03 07:19:31;;;;;;;4.63;2.20;;;;;;;;;;5019236;28;20399;-76
2023/04/03 07:21:56;;;;;;;4.73;2.63;;;;;;;;;;5038646;28;20085;-72
2023/04/03 07:24:22;;;;;;;5.37;2.93;;;;;;;;;;5062207;28;20139;-73
2023/04/03 07:26:52;;;;;;;4.00;2.47;;;;;;;;;;5057748;28;20099;-72
2023/04/03 07:29:21;;;;;;;5.33;2.70;;;;;;;;;;5043242;28;20476;-73
2023/04/03 07:31:47;;;;;;;7.67;2.07;;;;;;;;;;5058755;28;20039;-75
2023/04/03 07:34:12;;;;;;;4.60;2.50;;;;;;;;;;5062655;28;20430;-74
2023/04/03 07:36:38;;;;;;;6.00;2.20;;;;;;;;;;5044602;28;20056;-74
2023/04/03 07:39:06;;;;;;;8.07;3.13;;;;;;;;;;5040681;28;20052;-73
2023/04/03 07:41:32;;;;;;;12.73;2.93;;;;;;;;;;5049853;28;20087;-74
2023/04/03 07:43:58;;;;;;;5.27;3.10;;;;;;;;;;5050316;28;20159;-74
2023/04/03 07:46:25;;;;;;;5.57;2.47;;;;;;;;;;5027135;28;20067;-73
2023/04/03 07:48:51;;;;;;;5.83;2.37;;;;;;;;;;5039052;28;20028;-75
2023/04/03 07:51:16;;;;;;;8.97;3.20;;;;;;;;;;5028119;28;20047;-74
2023/04/03 07:53:42;;;;;;;6.10;3.00;;;;;;;;;;5032318;28;20055;-73
2023/04/03 07:56:09;;;;;;;6.80;3.40;;;;;;;;;;5025433;28;20313;-74
2023/04/03 07:58:35;;;;;;;6.60;3.80;;;;;;;;;;5052627;28;20385;-73
2023/04/03 08:01:01;;;;;;;11.03;3.17;;;;;;;;;;5050407;28;20051;-73
2023/04/03 08:03:27;;;;;;;6.80;2.73;;;;;;;;;;5035576;28;20064;-72
2023/04/03 08:05:53;;;;;;;7.23;2.63;;;;;;;;;;5032012;28;20062;-74
2023/04/03 08:08:21;;;;;;;6.83;2.70;;;;;;;;;;5037567;28;20452;-74
2023/04/03 08:10:54;;;;;;;7.60;2.87;;;;;;;;;;5044860;28;20064;-73
2023/04/03 08:13:20;;;;;;;3.63;2.53;;;;;;;;;;5028878;28;20037;-73
2023/04/03 08:15:46;;;;;;;7.90;3.50;;;;;;;;;;5034051;28;20123;-74
2023/04/03 08:18:13;;;;;;;8.20;2.87;;;;;;;;;;5057929;28;20464;-73
2023/04/03 08:20:40;;;;;;;5.60;2.50;;;;;;;;;;5043422;28;20035;-74
2023/04/03 08:23:06;;;;;;;7.77;2.50;;;;;;;;;;5068012;28;20080;-75
2023/04/03 08:25:33;;;;;;;5.63;2.80;;;;;;;;;;5043861;28;20144;-74
2023/04/03 08:27:59;;;;;;;10.17;3.80;;;;;;;;;;5058270;28;20320;-75
2023/04/03 08:30:25;;;;;;;6.27;3.30;;;;;;;;;;5045832;28;20497;-77
2023/04/03 08:32:50;;;;;;;3.90;2.30;;;;;;;;;;5018130;28;20033;-74
2023/04/03 08:35:16;;;;;;;7.60;3.20;;;;;;;;;;5041310;28;20029;-72
2023/04/03 08:37:43;;;;;;;4.90;2.67;;;;;;;;;;5037932;28;20505;-74
2023/04/03 08:40:14;;;;;;;2.97;2.43;;;;;;;;;;5058287;28;20716;-75
2023/04/03 08:42:49;;;;;;;4.97;2.55;;;;;;;;;;5060927;28;20766;-74
2023/04/03 08:45:33;;;;;;;7.67;2.30;;;;;;;;;;5057903;28;20059;-75
2023/04/03 08:48:11;;;;;;;5.00;2.03;;;;;;;;;;5040385;28;20036;-74
2023/04/03 08:50:41;;;;;;;6.00;2.60;;;;;;;;;;5038698;28;20102;-74
2023/04/03 08:53:15;;;;;;;6.27;2.80;;;;;;;;;;5043484;28;20039;-75
2023/04/03 08:55:47;;;;;;;7.70;2.67;;;;;;;;;;5041451;28;20325;-74
2023/04/03 08:58:28;;;;;;;3.90;2.20;;;;;;;;;;5056833;28;20456;-75
2023/04/03 09:00:59;;;;;;;7.17;2.90;;;;;;;;;;5061284;28;20028;-75
2023/04/03 09:03:25;;;;;;;6.05;2.88;;;;;;;;;;5027121;28;20039;-75
2023/04/03 09:06:13;;;;;;;8.80;2.80;;;;;;;;;;5058573;28;20112;-75
2023/04/03 09:09:06;;;;;;;3.57;2.30;;;;;;;;;;5031903;28;20418;-76
2023/04/03 09:11:47;;;;;;;4.63;2.70;;;;;;;;;;5063264;28;20062;-76
2023/04/03 09:14:19;;;;;;;5.20;2.37;;;;;;;;;;5061817;28;20480;-76
2023/04/03 09:16:53;;;;;;;7.40;2.53;;;;;;;;;;5054698;28;20037;-75
2023/04/03 09:19:31;;;;;;;4.53;2.70;;;;;;;;;;5041071;28;20039;-77
2023/04/03 09:22:21;;;;;;;5.70;1.77;;;;;;;;;;5058111;28;20043;-75
2023/04/03 09:24:52;;;;;;;4.10;2.07;;;;;;;;;;5046210;28;20093;-75
2023/04/03 09:27:17;;;;;;;11.23;2.40;;;;;;;;;;5060179;28;20365;-76
2023/04/03 09:29:45;;;;;;;7.83;2.60;;;;;;;;;;5038132;28;20043;-76
2023/04/03 09:32:25;;;;;;;4.33;2.17;;;;;;;;;;5042269;28;20130;-75
2023/04/03 09:34:53;;;;;;;6.73;2.30;;;;;;;;;;5033762;28;20031;-77
2023/04/03 09:37:37;;;;;;;6.80;2.53;;;;;;;;;;5064360;28;20032;-76
2023/04/03 09:40:04;;;;;;;11.50;2.60;;;;;;;;;;5040310;28;20020;-75
2023/04/03 09:42:31;;;;;;;6.57;2.47;;;;;;;;;;5034192;28;20044;-75
2023/04/03 09:44:59;;;;;;;5.53;2.30;;;;;;;;;;5032209;28;20029;-75
2023/04/03 09:47:28;;;;;;;8.73;2.33;;;;;;;;;;5052070;28;20059;-75
2023/04/03 09:50:12;;;;;;;9.20;2.77;;;;;;;;;;5034240;28;20024;-75
2023/04/03 09:52:42;;;;;;;5.40;1.83;;;;;;;;;;5051263;28;20028;-76
2023/04/03 09:55:15;;;;;;;4.97;2.40;;;;;;;;;;5034210;28;20035;-76
2023/04/03 09:57:41;;;;;;;14.13;2.53;;;;;;;;;;5051471;28;20375;-75
2023/04/03 10:00:22;;;;;;;3.90;1.97;;;;;;;;;;5036584;28;20029;-76
2023/04/03 10:02:52;;;;;;;4.47;1.87;;;;;;;;;;5055723;28;20036;-74
2023/04/03 10:05:37;;;;;;;7.33;2.53;;;;;;;;;;5027973;28;20136;-75
2023/04/03 10:08:13;;;;;;;4.90;2.30;;;;;;;;;;5044072;28;20012;-74
2023/04/03 10:10:40;;;;;;;5.00;2.00;;;;;;;;;;5048717;28;20016;-74
2023/04/03 10:13:23;;;;;;;3.03;1.90;;;;;;;;;;5041844;28;20368;-75
2023/04/03 10:15:55;;;;;;;4.00;2.27;;;;;;;;;;5041032;28;20020;-75
2023/04/03 10:18:38;;;;;;;4.97;2.10;;;;;;;;;;5049236;28;20023;-75
2023/04/03 10:21:15;;;;;;;6.87;2.73;;;;;;;;;;5037735;28;20036;-77
2023/04/03 10:23:49;;;;;;;4.43;2.13;;;;;;;;;;5065277;28;20055;-75
2023/04/03 10:26:21;;;;;;;3.40;1.80;;;;;;;;;;5055875;28;20021;-75
2023/04/03 10:29:08;;;;;;;8.13;3.43;;;;;;;;;;5051360;28;20029;-74
2023/04/03 10:31:52;;;;;;;4.93;2.17;;;;;;;;;;5041547;28;20043;-75
2023/04/03 10:34:37;;;;;;;4.77;1.67;;;;;;;;;;5068048;28;20028;-74
2023/04/03 10:37:21;;;;;;;4.10;2.10;;;;;;;;;;5061097;28;20025;-74
2023/04/03 10:39:58;;;;;;;3.70;1.87;;;;;;;;;;5057798;28;20028;-75
2023/04/03 10:42:46;;;;;;;3.50;1.77;;;;;;;;;;5033684;28;20084;-75
2023/04/03 10:45:35;;;;;;;5.80;2.30;;;;;;;;;;5041462;28;20177;-76
2023/04/03 10:48:44;;;;;;;4.77;2.20;;;;;;;;;;5037381;28;20044;-75
2023/04/03 10:51:24;;;;;;;5.80;2.60;;;;;;;;;;5011857;28;20040;-75
2023/04/03 10:54:24;;;;;;;9.27;1.93;;;;;;;;;;5068661;28;20047;-75
2023/04/03 10:57:03;;;;;;;4.47;2.20;;;;;;;;;;5067538;28;20032;-76
2023/04/03 10:59:36;;;;;;;5.47;2.70;;;;;;;;;;5049416;28;20028;-75
2023/04/03 11:02:24;;;;;;;5.27;1.90;;;;;;;;;;5051112;28;20024;-74
2023/04/03 11:04:55;;;;;;;3.23;1.70;;;;;;;;;;5044281;28;20065;-77
2023/04/03 11:07:24;;;;;;;5.30;2.10;;;;;;;;;;5055247;28;20021;-77
2023/04/03 11:09:57;;;;;;;5.63;2.00;;;;;;;;;;5055611;28;20423;-75
2023/04/03 11:12:26;;;;;;;3.40;1.40;;;;;;;;;;5066064;28;20029;-76
2023/04/03 11:14:54;;;;;;;3.83;1.80;;;;;;;;;;5058966;28;20058;-77
2023/04/03 11:17:31;;;;;;;3.23;1.87;;;;;;;;;;5067998;28;20441;-74
2023/04/03 11:20:32;;;;;;;4.10;1.73;;;;;;;;;;5051932;28;20468;-74
2023/04/03 11:23:13;;;;;;;3.63;1.73;;;;;;;;;;5052926;28;20024;-75
2023/04/03 11:25:41;;;;;;;4.60;2.33;;;;;;;;;;5059742;28;20028;-75
2023/04/03 11:28:13;;;;;;;7.63;2.33;;;;;;;;;;5076233;28;20518;-75
2023/04/03 11:31:11;;;;;;;2.95;1.90;;;;;;;;;;5064666;28;20033;-75
2023/04/03 11:33:48;;;;;;;6.20;1.87;;;;;;;;;;5058096;28;20099;-74
2023/04/03 11:36:33;;;;;;;4.50;1.87;;;;;;;;;;5060507;28;20032;-76
2023/04/03 11:39:19;;;;;;;6.80;1.87;;;;;;;;;;5056455;28;20037;-74
2023/04/03 11:41:45;;;;;;;4.13;1.70;;;;;;;;;;5070789;28;20354;-74
2023/04/03 11:44:42;;;;;;;4.03;2.13;;;;;;;;;;5071787;28;20040;-75
2023/04/03 11:47:19;;;;;;;7.50;1.90;;;;;;;;;;5065822;28;20235;-75
2023/04/03 11:50:00;;;;;;;6.27;2.17;;;;;;;;;;5051949;28;20032;-74
2023/04/03 11:52:39;;;;;;;4.28;1.63;;;;;;;;;;5067601;28;20031;-74
2023/04/03 11:55:26;;;;;;;4.57;1.90;;;;;;;;;;5072657;28;20028;-75
2023/04/03 11:57:57;;;;;;;5.87;1.77;;;;;;;;;;5066110;28;20066;-73
2023/04/03 12:00:50;;;;;;;1.45;1.20;;;;;;;;;;5051507;28;20026;-75
2023/04/03 12:05:52;;;;;;;5.43;1.83;;;;;;;;;;5068081;28;20119;-74
2023/04/03 12:08:29;;;;;;;2.87;1.57;;;;;;;;;;5067033;28;20029;-74
2023/04/03 12:11:13;;;;;;;7.00;1.70;;;;;;;;;;5052771;28;20060;-75
2023/04/03 12:13:49;;;;;;;6.23;2.47;;;;;;;;;;5058049;28;20473;-75
2023/04/03 12:16:37;;;;;;;3.20;1.53;;;;;;;;;;5066838;28;20041;-75
2023/04/03 12:19:35;;;;;;;4.93;1.97;;;;;;;;;;5061088;28;20020;-74
2023/04/03 12:22:00;;;;;;;5.83;1.70;;;;;;;;;;5025731;28;20111;-74
2023/04/03 12:24:31;;;;;;;3.87;1.63;;;;;;;;;;5024909;28;20801;-74
2023/04/03 12:26:59;;;;;;;4.37;1.90;;;;;;;;;;5026980;28;20052;-74
2023/04/03 12:29:34;;;;;;;3.37;1.50;;;;;;;;;;5028314;28;20038;-75
2023/04/03 12:32:24;;;;;;;6.47;1.90;;;;;;;;;;5025131;28;20508;-75
2023/04/03 12:35:08;;;;;;;6.10;1.53;;;;;;;;;;5020865;28;20037;-73
2023/04/03 12:38:00;;;;;;;3.83;1.27;;;;;;;;;;5024169;28;20409;-73
2023/04/03 12:40:43;;;;;;;1.77;1.20;;;;;;;;;;5024660;28;20504;-72
2023/04/03 12:43:35;;;;;;;5.13;1.90;;;;;;;;;;5025726;28;20485;-72
2023/04/03 12:46:06;;;;;;;7.65;2.35;;;;;;;;;;5027641;28;20037;-74
2023/04/03 12:48:46;;;;;;;3.75;1.38;;;;;;;;;;5024292;28;20087;-71
2023/04/03 12:51:23;;;;;;;4.77;1.93;;;;;;;;;;5024107;28;20033;-72
2023/04/03 12:54:01;;;;;;;3.17;1.50;;;;;;;;;;5042327;28;20528;-72
2023/04/03 12:56:29;;;;;;;3.20;1.48;;;;;;;;;;5034020;28;20052;-73
2023/04/03 12:59:21;;;;;;;2.77;1.67;;;;;;;;;;5024462;28;20305;-73
2023/04/03 13:02:00;;;;;;;3.35;1.50;;;;;;;;;;5025084;28;20497;-72
2023/04/03 13:04:31;;;;;;;2.47;1.70;;;;;;;;;;5033447;28;20037;-73
2023/04/03 13:06:57;;;;;;;7.65;1.38;;;;;;;;;;5026238;28;20115;-72
2023/04/03 13:09:23;;;;;;;2.80;1.50;;;;;;;;;;5019588;28;20073;-71
2023/04/03 13:11:51;;;;;;;4.87;1.40;;;;;;;;;;5026064;28;20151;-72
2023/04/03 13:14:22;;;;;;;6.73;3.57;;;;;;;;;;5030658;28;20029;-73
2023/04/03 13:16:59;;;;;;;1.85;1.30;;;;;;;;;;5029137;28;20029;-72
2023/04/03 13:19:27;;;;;;;4.47;1.60;;;;;;;;;;5028401;28;20148;-74
2023/04/03 13:22:08;;;;;;;8.73;1.58;;;;;;;;;;5017167;28;20874;-73
2023/04/03 13:24:36;;;;;;;4.05;1.60;;;;;;;;;;5023569;28;20538;-74
2023/04/03 13:27:03;;;;;;;8.90;2.35;;;;;;;;;;5024246;28;20089;-72
2023/04/03 13:29:35;;;;;;;1.77;1.02;;;;;;;;;;5030487;28;20072;-74
2023/04/03 13:32:01;;;;;;;;;;;;;;;;;;5014193;28;20096;-72
2023/04/03 13:34:31;;;;;;;4.20;1.30;;;;;;;;;;5021148;28;20391;-73
2023/04/03 13:36:59;;;;;;;4.97;1.23;;;;;;;;;;5023657;28;20021;-72
2023/04/03 13:39:30;;;;;;;5.60;1.57;;;;;;;;;;5022303;28;20467;-72
2023/04/03 13:42:15;;;;;;;2.93;1.03;;;;;;;;;;5024004;28;20049;-71
2023/04/03 13:44:41;;;;;;;4.63;1.50;;;;;;;;;;5021884;28;20026;-75
2023/04/03 13:47:15;;;;;;;5.00;1.67;;;;;;;;;;5027176;28;20102;-74
2023/04/03 13:50:06;;;;;;;4.50;1.57;;;;;;;;;;5024922;28;20033;-72
2023/04/03 13:52:39;;;;;;;1.70;0.90;;;;;;;;;;5019976;28;20033;-72
2023/04/03 13:55:20;;;;;;;2.93;1.57;;;;;;;;;;5018018;28;20025;-72
2023/04/03 13:57:54;;;;;;;7.20;1.53;;;;;;;;;;5021484;28;20457;-73
2023/04/03 14:00:34;;;;;;;6.83;1.33;;;;;;;;;;5024109;28;20081;-72
2023/04/03 14:03:00;;;;;;;3.50;1.40;;;;;;;;;;5023959;28;20392;-71
2023/04/03 14:05:26;;;;;;;7.13;2.90;;;;;;;;;;5020824;28;20021;-72
2023/04/03 14:07:54;;;;;;;5.43;1.50;;;;;;;;;;5026441;28;20436;-70
2023/04/03 14:10:20;;;;;;;3.37;1.10;;;;;;;;;;5031424;28;20456;-73
2023/04/03 14:12:46;;;;;;;4.10;1.03;;;;;;;;;;5025512;28;20029;-72
2023/04/03 14:15:28;;;;;;;4.97;1.37;;;;;;;;;;5023074;28;20415;-74
2023/04/03 14:17:55;;;;;;;3.50;1.15;;;;;;;;;;5020504;28;20038;-71
2023/04/03 14:20:24;;;;;;;4.07;1.23;;;;;;;;;;5018521;28;20114;-72
2023/04/03 14:22:51;;;;;;;4.57;1.00;;;;;;;;;;5006162;28;20050;-72
2023/04/03 14:25:18;;;;;;;4.20;1.23;;;;;;;;;;5002328;28;20026;-71
2023/04/03 14:27:48;;;;;;;2.33;1.43;;;;;;;;;;5027709;28;20514;-72
2023/04/03 14:30:23;;;;;;;2.60;1.33;;;;;;;;;;5025886;28;20021;-73
2023/04/03 14:32:49;;;;;;;2.20;1.00;;;;;;;;;;5029052;28;20033;-71
2023/04/03 14:35:18;;;;;;;2.93;1.00;;;;;;;;;;5009416;28;20448;-73
2023/04/03 14:37:44;;;;;;;3.10;1.10;;;;;;;;;;5012050;28;20464;-70
2023/04/03 14:40:16;;;;;;;7.10;1.47;;;;;;;;;;5020982;28;20043;-72
2023/04/03 14:42:43;;;;;;;4.07;1.67;;;;;;;;;;5027302;28;20064;-74
2023/04/03 14:45:11;;;;;;;5.50;1.83;;;;;;;;;;5003857;28;20068;-73
2023/04/03 14:47:51;;;;;;;4.23;1.43;;;;;;;;;;5010919;28;20084;-73
2023/04/03 14:50:21;;;;;;;5.80;1.50;;;;;;;;;;5031070;28;20572;-75
2023/04/03 14:52:48;;;;;;;4.30;1.40;;;;;;;;;;5027233;28;20018;-76
2023/04/03 14:55:19;;;;;;;3.87;1.27;;;;;;;;;;5024597;28;20048;-73
2023/04/03 14:57:45;;;;;;;2.92;1.30;;;;;;;;;;5022951;28;20029;-74
2023/04/03 15:00:19;;;;;;;6.03;1.50;;;;;;;;;;5013038;28;20033;-74
2023/04/03 15:02:45;;;;;;;5.13;2.40;;;;;;;;;;5020749;28;20410;-73
2023/04/03 15:05:12;;;;;;;3.23;1.50;;;;;;;;;;5031797;28;20052;-74